Coos Bay, OR

5:53 PM PDT on September 19, 2014 (GMT -0700)
Barview | Change Station
CLOSE
Current Station
Personal Weather Station
Location: Coos Bay, OR
Elevation: 72 ft
Nearby Weather Stations

Elev 72 ft 43.35 °N, 124.31 °W | Updated 18 seconds ago

Clear
Clear
64.8 °F
Feels Like 64.8 °F
N
10.5
Wind Variable Wind from WNW
Gusts 10.5 mph

Today
High -- | Low -- °F
--% Chance of Precip.
Yesterday
High -- | Low -- °F
Precip. -- in
7:01 AM 7:20 PM
Waning Crescent, 16% visible
Pressure 29.99 in
Visibility 10.0 miles
Clouds Clear
Dew Point 43 °F
Humidity 45%
Rainfall 0.00 in
Snow Depth 0 in , 0 in , 0 in
UV 1 out of 12
Pollen 1.80 out of 12
Air Quality Not available.
Flu Activity Not available.
METAR KOTH 200035Z 36017G24KT 10SM CLR 20/15 A2999 RMK AO1

More Conditions Fewer Conditions

Pressure 29.99 in
Visibility 10.0 miles
Clouds Clear
Dew Point 43 °F
Humidity 45%
Rainfall 0.00 in
Snow Depth 0 in , 0 in , 0 in
UV 1 out of 12
Pollen 1.80 out of 12
Air Quality Not available.
Flu Activity Not available.
METAR KOTH 200035Z 36017G24KT 10SM CLR 20/15 A2999 RMK AO1

More Conditions Fewer Conditions

10-Day Weather Forecast

Almanac

Astronomy

Sep. 19, 2014 Rise Set
Actual Time 7:01 AM PDT 7:20 PM PDT
Civil Twilight 6:32 AM PDT 7:48 PM PDT
Nautical Twilight 5:59 AM PDT 8:22 PM PDT
Astronomical Twilight 5:24 AM PDT 8:56 PM PDT
Moon 2:46 AM PDT (9/19) 4:57 PM PDT (9/19)
Length of Visible Light 13h 15m
Length of Day
12h 18m
Tomorrow will be 2m 55s shorter.
Waning Crescent, 16% of the Moon is Illuminated
Today
Waning Crescent
Sep 24
New
Oct 1
First Quarter
Oct 8
Full
Oct 15
Last Quarter

Today's Extremes

State Highs State Lows

Community

WunderPhotos

Upload Photos

1,754,744 photos uploaded!

WunderBlogs® & News

Nearby

Snow Depth

Station Depth Elevation
Mt. Howard 0 in 7910 ft
Strawberry 0 in 5760 ft
Sevenmile Marsh 0 in 6200 ft
Diamond Lake 0 in 5315 ft
New Crescent Lake 0 in 4800 ft

Earthquake Activity

City Distance Mag. Time & Date
No recent earthquake activity has been reported nearby.
Minimum magnitude displayed is 2.5.

Coastal Water Temperatures

Place Temperature
Port Orford, OR 55.0 °F
Charleston, OR 57.0 °F
South Beach, OR 59.0 °F

Nearby Weather Stations